sensor_id;sensor_type;location;lat;lon;timestamp;P1;durP1;ratioP1;P2;durP2;ratioP2
39426;SDS011;25938;48.470;1.486;2023-06-19T00:00:29;7.85;;;4.95;;
39426;SDS011;25938;48.470;1.486;2023-06-19T00:02:55;7.97;;;4.30;;
39426;SDS011;25938;48.470;1.486;2023-06-19T00:05:22;4.68;;;3.78;;
39426;SDS011;25938;48.470;1.486;2023-06-19T00:07:52;8.90;;;5.10;;
39426;SDS011;25938;48.470;1.486;2023-06-19T00:10:18;7.25;;;3.85;;
39426;SDS011;25938;48.470;1.486;2023-06-19T00:12:44;6.57;;;3.72;;
39426;SDS011;25938;48.470;1.486;2023-06-19T00:15:10;8.50;;;4.05;;
39426;SDS011;25938;48.470;1.486;2023-06-19T00:17:36;8.20;;;4.30;;
39426;SDS011;25938;48.470;1.486;2023-06-19T00:20:05;11.95;;;4.28;;
39426;SDS011;25938;48.470;1.486;2023-06-19T00:22:31;7.95;;;4.22;;
39426;SDS011;25938;48.470;1.486;2023-06-19T00:24:57;11.48;;;4.53;;
39426;SDS011;25938;48.470;1.486;2023-06-19T00:27:23;8.38;;;4.40;;
39426;SDS011;25938;48.470;1.486;2023-06-19T00:29:53;6.60;;;3.95;;
39426;SDS011;25938;48.470;1.486;2023-06-19T00:32:19;8.27;;;4.50;;
39426;SDS011;25938;48.470;1.486;2023-06-19T00:34:45;10.93;;;4.43;;
39426;SDS011;25938;48.470;1.486;2023-06-19T00:37:11;4.97;;;3.80;;
39426;SDS011;25938;48.470;1.486;2023-06-19T00:39:40;15.02;;;5.70;;
39426;SDS011;25938;48.470;1.486;2023-06-19T00:42:06;7.45;;;4.88;;
39426;SDS011;25938;48.470;1.486;2023-06-19T00:44:32;12.63;;;4.18;;
39426;SDS011;25938;48.470;1.486;2023-06-19T00:46:58;10.65;;;5.18;;
39426;SDS011;25938;48.470;1.486;2023-06-19T00:49:26;8.15;;;4.07;;
39426;SDS011;25938;48.470;1.486;2023-06-19T00:51:52;10.63;;;5.30;;
39426;SDS011;25938;48.470;1.486;2023-06-19T00:54:18;10.00;;;4.82;;
39426;SDS011;25938;48.470;1.486;2023-06-19T00:56:44;7.68;;;4.80;;
39426;SDS011;25938;48.470;1.486;2023-06-19T00:59:20;6.30;;;4.25;;
39426;SDS011;25938;48.470;1.486;2023-06-19T01:01:47;6.30;;;3.80;;
39426;SDS011;25938;48.470;1.486;2023-06-19T01:04:13;11.43;;;5.18;;
39426;SDS011;25938;48.470;1.486;2023-06-19T01:06:56;9.18;;;4.53;;
39426;SDS011;25938;48.470;1.486;2023-06-19T01:09:23;7.82;;;3.90;;
39426;SDS011;25938;48.470;1.486;2023-06-19T01:11:52;8.35;;;4.20;;
39426;SDS011;25938;48.470;1.486;2023-06-19T01:14:26;10.23;;;4.43;;
39426;SDS011;25938;48.470;1.486;2023-06-19T01:16:54;13.93;;;4.80;;
39426;SDS011;25938;48.470;1.486;2023-06-19T01:19:20;9.30;;;4.80;;
39426;SDS011;25938;48.470;1.486;2023-06-19T01:21:47;8.85;;;3.75;;
39426;SDS011;25938;48.470;1.486;2023-06-19T01:24:13;9.23;;;4.25;;
39426;SDS011;25938;48.470;1.486;2023-06-19T01:26:40;8.77;;;3.92;;
39426;SDS011;25938;48.470;1.486;2023-06-19T01:29:06;7.43;;;4.20;;
39426;SDS011;25938;48.470;1.486;2023-06-19T01:31:42;7.63;;;3.85;;
39426;SDS011;25938;48.470;1.486;2023-06-19T01:34:11;10.18;;;4.68;;
39426;SDS011;25938;48.470;1.486;2023-06-19T01:36:38;10.48;;;4.95;;
39426;SDS011;25938;48.470;1.486;2023-06-19T01:39:04;11.15;;;4.18;;
39426;SDS011;25938;48.470;1.486;2023-06-19T01:41:30;11.10;;;4.97;;
39426;SDS011;25938;48.470;1.486;2023-06-19T01:43:57;9.80;;;4.07;;
39426;SDS011;25938;48.470;1.486;2023-06-19T01:46:24;9.70;;;4.00;;
39426;SDS011;25938;48.470;1.486;2023-06-19T01:48:50;12.85;;;6.10;;
39426;SDS011;25938;48.470;1.486;2023-06-19T01:51:17;9.57;;;3.72;;
39426;SDS011;25938;48.470;1.486;2023-06-19T01:53:43;18.52;;;4.97;;
39426;SDS011;25938;48.470;1.486;2023-06-19T01:56:09;17.50;;;5.03;;
39426;SDS011;25938;48.470;1.486;2023-06-19T01:58:35;7.22;;;4.53;;
39426;SDS011;25938;48.470;1.486;2023-06-19T02:01:01;15.65;;;4.78;;
39426;SDS011;25938;48.470;1.486;2023-06-19T02:03:27;8.25;;;4.70;;
39426;SDS011;25938;48.470;1.486;2023-06-19T02:05:53;14.95;;;6.60;;
39426;SDS011;25938;48.470;1.486;2023-06-19T02:08:19;16.05;;;9.30;;
39426;SDS011;25938;48.470;1.486;2023-06-19T02:10:45;13.10;;;7.90;;
39426;SDS011;25938;48.470;1.486;2023-06-19T02:13:11;13.13;;;10.13;;
39426;SDS011;25938;48.470;1.486;2023-06-19T02:15:37;11.85;;;9.38;;
39426;SDS011;25938;48.470;1.486;2023-06-19T02:18:03;14.00;;;11.18;;
39426;SDS011;25938;48.470;1.486;2023-06-19T02:20:30;14.57;;;11.98;;
39426;SDS011;25938;48.470;1.486;2023-06-19T02:22:57;20.17;;;13.68;;
39426;SDS011;25938;48.470;1.486;2023-06-19T02:25:23;22.38;;;15.32;;
39426;SDS011;25938;48.470;1.486;2023-06-19T02:27:49;15.88;;;13.45;;
39426;SDS011;25938;48.470;1.486;2023-06-19T02:30:15;18.27;;;13.95;;
39426;SDS011;25938;48.470;1.486;2023-06-19T02:32:41;21.02;;;13.07;;
39426;SDS011;25938;48.470;1.486;2023-06-19T02:35:08;24.35;;;13.25;;
39426;SDS011;25938;48.470;1.486;2023-06-19T02:37:34;21.08;;;13.07;;
39426;SDS011;25938;48.470;1.486;2023-06-19T02:40:03;17.33;;;12.68;;
39426;SDS011;25938;48.470;1.486;2023-06-19T02:42:30;18.80;;;11.75;;
39426;SDS011;25938;48.470;1.486;2023-06-19T02:44:56;16.80;;;11.30;;
39426;SDS011;25938;48.470;1.486;2023-06-19T02:47:28;15.35;;;9.98;;
39426;SDS011;25938;48.470;1.486;2023-06-19T02:49:54;11.25;;;9.18;;
39426;SDS011;25938;48.470;1.486;2023-06-19T02:52:20;13.85;;;8.30;;
39426;SDS011;25938;48.470;1.486;2023-06-19T02:54:46;14.50;;;9.98;;
39426;SDS011;25938;48.470;1.486;2023-06-19T02:57:12;16.42;;;9.35;;
39426;SDS011;25938;48.470;1.486;2023-06-19T02:59:38;12.10;;;8.18;;
39426;SDS011;25938;48.470;1.486;2023-06-19T03:02:04;15.20;;;8.32;;
39426;SDS011;25938;48.470;1.486;2023-06-19T03:04:30;13.45;;;8.60;;
39426;SDS011;25938;48.470;1.486;2023-06-19T03:06:56;16.15;;;7.80;;
39426;SDS011;25938;48.470;1.486;2023-06-19T03:09:22;12.57;;;8.88;;
39426;SDS011;25938;48.470;1.486;2023-06-19T03:11:48;17.05;;;8.13;;
39426;SDS011;25938;48.470;1.486;2023-06-19T03:14:14;12.48;;;8.30;;
39426;SDS011;25938;48.470;1.486;2023-06-19T03:16:40;16.67;;;7.20;;
39426;SDS011;25938;48.470;1.486;2023-06-19T03:19:06;12.65;;;6.50;;
39426;SDS011;25938;48.470;1.486;2023-06-19T03:21:32;11.15;;;6.25;;
39426;SDS011;25938;48.470;1.486;2023-06-19T03:24:00;13.77;;;5.90;;
39426;SDS011;25938;48.470;1.486;2023-06-19T03:26:26;12.48;;;5.78;;
39426;SDS011;25938;48.470;1.486;2023-06-19T03:28:52;10.60;;;5.95;;
39426;SDS011;25938;48.470;1.486;2023-06-19T03:31:18;11.70;;;5.28;;
39426;SDS011;25938;48.470;1.486;2023-06-19T03:33:44;10.70;;;5.07;;
39426;SDS011;25938;48.470;1.486;2023-06-19T03:36:10;7.78;;;4.30;;
39426;SDS011;25938;48.470;1.486;2023-06-19T03:38:36;7.55;;;5.00;;
39426;SDS011;25938;48.470;1.486;2023-06-19T03:41:02;15.60;;;5.90;;
39426;SDS011;25938;48.470;1.486;2023-06-19T03:43:28;12.73;;;6.22;;
39426;SDS011;25938;48.470;1.486;2023-06-19T03:45:54;7.43;;;4.80;;
39426;SDS011;25938;48.470;1.486;2023-06-19T03:48:20;7.68;;;4.20;;
39426;SDS011;25938;48.470;1.486;2023-06-19T03:50:46;8.15;;;5.20;;
39426;SDS011;25938;48.470;1.486;2023-06-19T03:53:12;10.13;;;5.20;;
39426;SDS011;25938;48.470;1.486;2023-06-19T03:55:39;9.15;;;4.95;;
39426;SDS011;25938;48.470;1.486;2023-06-19T03:58:04;11.02;;;5.22;;
39426;SDS011;25938;48.470;1.486;2023-06-19T04:00:31;11.55;;;5.35;;
39426;SDS011;25938;48.470;1.486;2023-06-19T04:02:57;10.25;;;4.45;;
39426;SDS011;25938;48.470;1.486;2023-06-19T04:05:23;8.98;;;4.70;;
39426;SDS011;25938;48.470;1.486;2023-06-19T04:07:49;10.82;;;4.80;;
39426;SDS011;25938;48.470;1.486;2023-06-19T04:10:15;10.95;;;5.07;;
39426;SDS011;25938;48.470;1.486;2023-06-19T04:12:41;6.80;;;4.32;;
39426;SDS011;25938;48.470;1.486;2023-06-19T04:15:10;7.00;;;4.30;;
39426;SDS011;25938;48.470;1.486;2023-06-19T04:17:36;9.70;;;4.40;;
39426;SDS011;25938;48.470;1.486;2023-06-19T04:20:02;6.80;;;4.35;;
39426;SDS011;25938;48.470;1.486;2023-06-19T04:22:35;10.60;;;5.20;;
39426;SDS011;25938;48.470;1.486;2023-06-19T04:25:01;8.80;;;5.50;;
39426;SDS011;25938;48.470;1.486;2023-06-19T04:27:27;12.10;;;5.15;;
39426;SDS011;25938;48.470;1.486;2023-06-19T04:29:53;8.15;;;4.55;;
39426;SDS011;25938;48.470;1.486;2023-06-19T04:32:19;5.95;;;3.63;;
39426;SDS011;25938;48.470;1.486;2023-06-19T04:34:45;9.38;;;4.70;;
39426;SDS011;25938;48.470;1.486;2023-06-19T04:37:12;7.70;;;4.35;;
39426;SDS011;25938;48.470;1.486;2023-06-19T04:39:38;9.32;;;5.03;;
39426;SDS011;25938;48.470;1.486;2023-06-19T04:42:04;12.48;;;4.70;;
39426;SDS011;25938;48.470;1.486;2023-06-19T04:44:30;5.35;;;3.80;;
39426;SDS011;25938;48.470;1.486;2023-06-19T04:46:58;6.82;;;3.60;;
39426;SDS011;25938;48.470;1.486;2023-06-19T04:49:27;6.72;;;3.60;;
39426;SDS011;25938;48.470;1.486;2023-06-19T04:51:55;10.18;;;3.90;;
39426;SDS011;25938;48.470;1.486;2023-06-19T04:54:21;5.88;;;4.57;;
39426;SDS011;25938;48.470;1.486;2023-06-19T04:56:47;5.53;;;3.40;;
39426;SDS011;25938;48.470;1.486;2023-06-19T04:59:13;9.90;;;3.47;;
39426;SDS011;25938;48.470;1.486;2023-06-19T05:01:43;14.35;;;4.75;;
39426;SDS011;25938;48.470;1.486;2023-06-19T05:04:09;4.90;;;3.60;;
39426;SDS011;25938;48.470;1.486;2023-06-19T05:06:38;6.35;;;3.53;;
39426;SDS011;25938;48.470;1.486;2023-06-19T05:09:04;7.00;;;4.28;;
39426;SDS011;25938;48.470;1.486;2023-06-19T05:11:30;6.20;;;4.03;;
39426;SDS011;25938;48.470;1.486;2023-06-19T05:13:56;6.07;;;4.22;;
39426;SDS011;25938;48.470;1.486;2023-06-19T05:16:22;6.13;;;4.72;;
39426;SDS011;25938;48.470;1.486;2023-06-19T05:18:49;6.45;;;3.83;;
39426;SDS011;25938;48.470;1.486;2023-06-19T05:21:16;7.47;;;4.03;;
39426;SDS011;25938;48.470;1.486;2023-06-19T05:23:42;9.50;;;5.15;;
39426;SDS011;25938;48.470;1.486;2023-06-19T05:26:08;10.10;;;3.97;;
39426;SDS011;25938;48.470;1.486;2023-06-19T05:28:34;10.52;;;5.15;;
39426;SDS011;25938;48.470;1.486;2023-06-19T05:31:00;9.55;;;4.13;;
39426;SDS011;25938;48.470;1.486;2023-06-19T05:33:26;12.98;;;4.72;;
39426;SDS011;25938;48.470;1.486;2023-06-19T05:35:52;9.45;;;7.78;;
39426;SDS011;25938;48.470;1.486;2023-06-19T05:38:19;7.75;;;5.40;;
39426;SDS011;25938;48.470;1.486;2023-06-19T05:40:45;9.02;;;4.45;;
39426;SDS011;25938;48.470;1.486;2023-06-19T05:43:11;6.85;;;4.95;;
39426;SDS011;25938;48.470;1.486;2023-06-19T05:45:38;7.95;;;4.15;;
39426;SDS011;25938;48.470;1.486;2023-06-19T05:48:04;11.05;;;5.50;;
39426;SDS011;25938;48.470;1.486;2023-06-19T05:50:30;9.82;;;5.07;;
39426;SDS011;25938;48.470;1.486;2023-06-19T05:52:56;9.40;;;5.70;;
39426;SDS011;25938;48.470;1.486;2023-06-19T05:55:22;8.43;;;5.43;;
39426;SDS011;25938;48.470;1.486;2023-06-19T05:57:50;9.77;;;6.90;;
39426;SDS011;25938;48.470;1.486;2023-06-19T06:00:16;11.60;;;7.35;;
39426;SDS011;25938;48.470;1.486;2023-06-19T06:02:42;20.98;;;8.40;;
39426;SDS011;25938;48.470;1.486;2023-06-19T06:05:08;16.50;;;8.95;;
39426;SDS011;25938;48.470;1.486;2023-06-19T06:07:35;13.27;;;8.55;;
39426;SDS011;25938;48.470;1.486;2023-06-19T06:10:01;18.40;;;8.40;;
39426;SDS011;25938;48.470;1.486;2023-06-19T06:12:27;15.02;;;8.88;;
39426;SDS011;25938;48.470;1.486;2023-06-19T06:14:53;18.30;;;9.27;;
39426;SDS011;25938;48.470;1.486;2023-06-19T06:17:19;16.90;;;8.57;;
39426;SDS011;25938;48.470;1.486;2023-06-19T06:19:45;18.55;;;9.68;;
39426;SDS011;25938;48.470;1.486;2023-06-19T06:22:11;14.38;;;8.73;;
39426;SDS011;25938;48.470;1.486;2023-06-19T06:24:37;15.68;;;9.75;;
39426;SDS011;25938;48.470;1.486;2023-06-19T06:27:03;20.88;;;12.32;;
39426;SDS011;25938;48.470;1.486;2023-06-19T06:29:30;21.20;;;11.15;;
39426;SDS011;25938;48.470;1.486;2023-06-19T06:32:03;23.17;;;11.52;;
39426;SDS011;25938;48.470;1.486;2023-06-19T06:34:30;22.42;;;12.05;;
39426;SDS011;25938;48.470;1.486;2023-06-19T06:36:57;20.30;;;11.20;;
39426;SDS011;25938;48.470;1.486;2023-06-19T06:39:23;18.27;;;10.90;;
39426;SDS011;25938;48.470;1.486;2023-06-19T06:41:49;17.88;;;10.70;;
39426;SDS011;25938;48.470;1.486;2023-06-19T06:44:15;17.05;;;10.55;;
39426;SDS011;25938;48.470;1.486;2023-06-19T06:46:41;19.55;;;11.10;;
39426;SDS011;25938;48.470;1.486;2023-06-19T06:49:07;19.38;;;10.63;;
39426;SDS011;25938;48.470;1.486;2023-06-19T06:51:33;15.52;;;10.93;;
39426;SDS011;25938;48.470;1.486;2023-06-19T06:53:59;15.80;;;11.02;;
39426;SDS011;25938;48.470;1.486;2023-06-19T06:56:25;18.63;;;12.77;;
39426;SDS011;25938;48.470;1.486;2023-06-19T06:58:51;17.33;;;10.40;;
39426;SDS011;25938;48.470;1.486;2023-06-19T07:01:17;15.00;;;10.38;;
39426;SDS011;25938;48.470;1.486;2023-06-19T07:03:43;14.80;;;10.38;;
39426;SDS011;25938;48.470;1.486;2023-06-19T07:06:09;14.88;;;11.52;;
39426;SDS011;25938;48.470;1.486;2023-06-19T07:08:35;13.98;;;10.63;;
39426;SDS011;25938;48.470;1.486;2023-06-19T07:11:02;16.35;;;10.50;;
39426;SDS011;25938;48.470;1.486;2023-06-19T07:13:28;17.70;;;10.30;;
39426;SDS011;25938;48.470;1.486;2023-06-19T07:15:54;18.10;;;12.82;;
39426;SDS011;25938;48.470;1.486;2023-06-19T07:18:20;16.10;;;10.88;;
39426;SDS011;25938;48.470;1.486;2023-06-19T07:20:46;16.30;;;9.82;;
39426;SDS011;25938;48.470;1.486;2023-06-19T07:23:12;18.70;;;11.18;;
39426;SDS011;25938;48.470;1.486;2023-06-19T07:25:38;16.20;;;10.90;;
39426;SDS011;25938;48.470;1.486;2023-06-19T07:28:04;16.05;;;11.52;;
39426;SDS011;25938;48.470;1.486;2023-06-19T07:30:30;14.07;;;10.45;;
39426;SDS011;25938;48.470;1.486;2023-06-19T07:32:56;16.35;;;10.43;;
39426;SDS011;25938;48.470;1.486;2023-06-19T07:35:22;14.23;;;9.82;;
39426;SDS011;25938;48.470;1.486;2023-06-19T07:37:48;15.20;;;10.50;;
39426;SDS011;25938;48.470;1.486;2023-06-19T07:40:14;17.27;;;11.23;;
39426;SDS011;25938;48.470;1.486;2023-06-19T07:42:40;14.85;;;10.43;;
39426;SDS011;25938;48.470;1.486;2023-06-19T07:45:07;19.80;;;12.15;;
39426;SDS011;25938;48.470;1.486;2023-06-19T07:47:33;15.02;;;11.15;;
39426;SDS011;25938;48.470;1.486;2023-06-19T07:49:59;15.75;;;11.48;;
39426;SDS011;25938;48.470;1.486;2023-06-19T07:52:25;14.32;;;10.05;;
39426;SDS011;25938;48.470;1.486;2023-06-19T07:54:51;15.63;;;9.90;;
39426;SDS011;25938;48.470;1.486;2023-06-19T07:57:18;13.98;;;10.52;;
39426;SDS011;25938;48.470;1.486;2023-06-19T07:59:44;14.20;;;9.85;;
39426;SDS011;25938;48.470;1.486;2023-06-19T08:02:10;17.05;;;11.38;;
39426;SDS011;25938;48.470;1.486;2023-06-19T08:04:36;12.93;;;10.23;;
39426;SDS011;25938;48.470;1.486;2023-06-19T08:07:02;14.95;;;10.68;;
39426;SDS011;25938;48.470;1.486;2023-06-19T08:09:28;17.77;;;12.45;;
39426;SDS011;25938;48.470;1.486;2023-06-19T08:11:54;13.30;;;10.95;;
39426;SDS011;25938;48.470;1.486;2023-06-19T08:14:20;14.05;;;10.43;;
39426;SDS011;25938;48.470;1.486;2023-06-19T08:16:46;13.20;;;9.95;;
39426;SDS011;25938;48.470;1.486;2023-06-19T08:19:12;13.85;;;11.00;;
39426;SDS011;25938;48.470;1.486;2023-06-19T08:21:38;16.02;;;9.57;;
39426;SDS011;25938;48.470;1.486;2023-06-19T08:24:04;19.05;;;10.65;;
39426;SDS011;25938;48.470;1.486;2023-06-19T08:26:30;15.50;;;10.02;;
39426;SDS011;25938;48.470;1.486;2023-06-19T08:28:56;10.88;;;9.02;;
39426;SDS011;25938;48.470;1.486;2023-06-19T08:31:22;15.50;;;9.57;;
39426;SDS011;25938;48.470;1.486;2023-06-19T08:33:53;12.57;;;10.07;;
39426;SDS011;25938;48.470;1.486;2023-06-19T08:36:19;13.50;;;10.18;;
39426;SDS011;25938;48.470;1.486;2023-06-19T08:38:45;11.75;;;9.73;;
39426;SDS011;25938;48.470;1.486;2023-06-19T08:41:15;13.38;;;9.02;;
39426;SDS011;25938;48.470;1.486;2023-06-19T08:43:43;11.30;;;8.73;;
39426;SDS011;25938;48.470;1.486;2023-06-19T08:46:10;11.90;;;8.98;;
39426;SDS011;25938;48.470;1.486;2023-06-19T08:48:37;10.57;;;8.13;;
39426;SDS011;25938;48.470;1.486;2023-06-19T08:51:03;12.60;;;8.80;;
39426;SDS011;25938;48.470;1.486;2023-06-19T08:53:32;11.38;;;9.38;;
39426;SDS011;25938;48.470;1.486;2023-06-19T08:55:59;10.20;;;6.95;;
39426;SDS011;25938;48.470;1.486;2023-06-19T08:58:25;13.50;;;7.30;;
39426;SDS011;25938;48.470;1.486;2023-06-19T09:00:51;10.73;;;6.90;;
39426;SDS011;25938;48.470;1.486;2023-06-19T09:03:21;12.43;;;7.40;;
39426;SDS011;25938;48.470;1.486;2023-06-19T09:05:47;10.35;;;7.07;;
39426;SDS011;25938;48.470;1.486;2023-06-19T09:08:17;8.82;;;6.13;;
39426;SDS011;25938;48.470;1.486;2023-06-19T09:10:53;8.27;;;6.72;;
39426;SDS011;25938;48.470;1.486;2023-06-19T09:13:19;10.82;;;6.50;;
39426;SDS011;25938;48.470;1.486;2023-06-19T09:15:45;9.07;;;6.68;;
39426;SDS011;25938;48.470;1.486;2023-06-19T09:18:11;6.68;;;5.60;;
39426;SDS011;25938;48.470;1.486;2023-06-19T09:20:38;9.05;;;6.82;;
39426;SDS011;25938;48.470;1.486;2023-06-19T09:23:08;7.57;;;6.78;;
39426;SDS011;25938;48.470;1.486;2023-06-19T09:25:47;7.72;;;5.57;;
39426;SDS011;25938;48.470;1.486;2023-06-19T09:28:17;6.05;;;5.50;;
39426;SDS011;25938;48.470;1.486;2023-06-19T09:30:53;6.20;;;4.63;;
39426;SDS011;25938;48.470;1.486;2023-06-19T09:33:19;4.65;;;4.00;;
39426;SDS011;25938;48.470;1.486;2023-06-19T09:35:45;6.30;;;3.42;;
39426;SDS011;25938;48.470;1.486;2023-06-19T09:38:12;3.67;;;3.30;;
39426;SDS011;25938;48.470;1.486;2023-06-19T09:40:38;4.25;;;3.33;;
39426;SDS011;25938;48.470;1.486;2023-06-19T09:43:04;6.97;;;3.95;;
39426;SDS011;25938;48.470;1.486;2023-06-19T09:45:31;5.38;;;3.72;;
39426;SDS011;25938;48.470;1.486;2023-06-19T09:47:57;4.22;;;3.83;;
39426;SDS011;25938;48.470;1.486;2023-06-19T09:50:24;5.47;;;3.63;;
39426;SDS011;25938;48.470;1.486;2023-06-19T09:52:52;5.20;;;3.38;;
39426;SDS011;25938;48.470;1.486;2023-06-19T09:55:20;4.57;;;3.72;;
39426;SDS011;25938;48.470;1.486;2023-06-19T09:57:49;4.35;;;3.95;;
39426;SDS011;25938;48.470;1.486;2023-06-19T10:00:15;29.60;;;17.33;;
39426;SDS011;25938;48.470;1.486;2023-06-19T10:02:47;6.63;;;4.45;;
39426;SDS011;25938;48.470;1.486;2023-06-19T10:05:13;4.28;;;3.88;;
39426;SDS011;25938;48.470;1.486;2023-06-19T10:07:44;3.58;;;3.05;;
39426;SDS011;25938;48.470;1.486;2023-06-19T10:10:11;4.43;;;4.03;;
39426;SDS011;25938;48.470;1.486;2023-06-19T10:12:45;4.63;;;3.47;;
39426;SDS011;25938;48.470;1.486;2023-06-19T10:15:32;6.32;;;4.05;;
39426;SDS011;25938;48.470;1.486;2023-06-19T10:18:00;4.43;;;3.53;;
39426;SDS011;25938;48.470;1.486;2023-06-19T10:20:37;5.03;;;3.40;;
39426;SDS011;25938;48.470;1.486;2023-06-19T10:23:14;5.45;;;3.78;;
39426;SDS011;25938;48.470;1.486;2023-06-19T10:25:42;5.22;;;3.58;;
39426;SDS011;25938;48.470;1.486;2023-06-19T10:28:18;3.20;;;2.90;;
39426;SDS011;25938;48.470;1.486;2023-06-19T10:30:51;5.40;;;3.90;;
39426;SDS011;25938;48.470;1.486;2023-06-19T10:33:17;5.72;;;3.72;;
39426;SDS011;25938;48.470;1.486;2023-06-19T10:35:43;5.30;;;3.50;;
39426;SDS011;25938;48.470;1.486;2023-06-19T10:38:09;3.58;;;3.10;;
39426;SDS011;25938;48.470;1.486;2023-06-19T10:40:36;3.50;;;3.20;;
39426;SDS011;25938;48.470;1.486;2023-06-19T10:43:02;3.38;;;2.90;;
39426;SDS011;25938;48.470;1.486;2023-06-19T10:45:29;4.97;;;3.25;;
39426;SDS011;25938;48.470;1.486;2023-06-19T10:47:55;4.47;;;3.60;;
39426;SDS011;25938;48.470;1.486;2023-06-19T10:50:21;4.75;;;3.45;;
39426;SDS011;25938;48.470;1.486;2023-06-19T10:52:48;5.68;;;3.83;;
39426;SDS011;25938;48.470;1.486;2023-06-19T10:55:14;4.55;;;3.20;;
39426;SDS011;25938;48.470;1.486;2023-06-19T10:57:40;4.55;;;3.20;;
39426;SDS011;25938;48.470;1.486;2023-06-19T11:00:10;3.05;;;2.78;;
39426;SDS011;25938;48.470;1.486;2023-06-19T11:02:42;4.05;;;2.97;;
39426;SDS011;25938;48.470;1.486;2023-06-19T11:05:09;4.55;;;2.75;;
39426;SDS011;25938;48.470;1.486;2023-06-19T11:07:38;3.47;;;2.80;;
39426;SDS011;25938;48.470;1.486;2023-06-19T11:10:04;4.32;;;3.28;;
39426;SDS011;25938;48.470;1.486;2023-06-19T11:12:31;2.95;;;2.75;;
39426;SDS011;25938;48.470;1.486;2023-06-19T11:14:58;2.95;;;2.67;;
39426;SDS011;25938;48.470;1.486;2023-06-19T11:17:24;3.10;;;2.78;;
39426;SDS011;25938;48.470;1.486;2023-06-19T11:19:50;4.72;;;3.83;;
39426;SDS011;25938;48.470;1.486;2023-06-19T11:22:16;5.10;;;3.45;;
39426;SDS011;25938;48.470;1.486;2023-06-19T11:24:43;3.70;;;3.25;;
39426;SDS011;25938;48.470;1.486;2023-06-19T11:27:17;4.05;;;3.13;;
39426;SDS011;25938;48.470;1.486;2023-06-19T11:29:44;6.53;;;4.05;;
39426;SDS011;25938;48.470;1.486;2023-06-19T11:32:12;4.00;;;3.60;;
39426;SDS011;25938;48.470;1.486;2023-06-19T11:34:39;4.07;;;3.03;;
39426;SDS011;25938;48.470;1.486;2023-06-19T11:37:15;4.72;;;3.33;;
39426;SDS011;25938;48.470;1.486;2023-06-19T11:39:46;5.43;;;3.15;;
39426;SDS011;25938;48.470;1.486;2023-06-19T11:42:13;6.45;;;3.30;;
39426;SDS011;25938;48.470;1.486;2023-06-19T11:44:55;4.68;;;3.58;;
39426;SDS011;25938;48.470;1.486;2023-06-19T11:47:21;3.17;;;2.88;;
39426;SDS011;25938;48.470;1.486;2023-06-19T11:49:48;4.22;;;3.63;;
39426;SDS011;25938;48.470;1.486;2023-06-19T11:52:14;4.60;;;3.22;;
39426;SDS011;25938;48.470;1.486;2023-06-19T11:54:40;6.20;;;3.88;;
39426;SDS011;25938;48.470;1.486;2023-06-19T11:57:08;3.83;;;3.30;;
39426;SDS011;25938;48.470;1.486;2023-06-19T11:59:37;5.57;;;3.75;;
39426;SDS011;25938;48.470;1.486;2023-06-19T12:02:03;3.70;;;3.40;;
39426;SDS011;25938;48.470;1.486;2023-06-19T12:04:30;3.92;;;3.63;;
39426;SDS011;25938;48.470;1.486;2023-06-19T12:06:55;3.72;;;3.38;;
39426;SDS011;25938;48.470;1.486;2023-06-19T12:09:21;4.80;;;4.32;;
39426;SDS011;25938;48.470;1.486;2023-06-19T12:11:48;4.03;;;3.63;;
39426;SDS011;25938;48.470;1.486;2023-06-19T12:14:14;4.65;;;4.25;;
39426;SDS011;25938;48.470;1.486;2023-06-19T12:16:40;4.05;;;3.65;;
39426;SDS011;25938;48.470;1.486;2023-06-19T12:19:06;5.85;;;3.60;;
39426;SDS011;25938;48.470;1.486;2023-06-19T12:21:32;5.90;;;4.15;;
39426;SDS011;25938;48.470;1.486;2023-06-19T12:23:58;7.00;;;3.92;;
39426;SDS011;25938;48.470;1.486;2023-06-19T12:26:24;10.20;;;4.82;;
39426;SDS011;25938;48.470;1.486;2023-06-19T12:28:50;5.20;;;3.83;;
39426;SDS011;25938;48.470;1.486;2023-06-19T12:31:17;4.90;;;3.60;;
39426;SDS011;25938;48.470;1.486;2023-06-19T12:33:43;4.57;;;3.97;;
39426;SDS011;25938;48.470;1.486;2023-06-19T12:36:16;4.57;;;3.75;;
39426;SDS011;25938;48.470;1.486;2023-06-19T12:38:42;6.00;;;3.83;;
39426;SDS011;25938;48.470;1.486;2023-06-19T12:41:08;4.13;;;3.30;;
39426;SDS011;25938;48.470;1.486;2023-06-19T12:43:34;3.60;;;3.30;;
39426;SDS011;25938;48.470;1.486;2023-06-19T12:46:00;4.22;;;3.63;;
39426;SDS011;25938;48.470;1.486;2023-06-19T12:48:26;6.35;;;4.72;;
39426;SDS011;25938;48.470;1.486;2023-06-19T12:50:52;5.68;;;3.80;;
39426;SDS011;25938;48.470;1.486;2023-06-19T12:53:18;3.72;;;3.15;;
39426;SDS011;25938;48.470;1.486;2023-06-19T12:55:46;5.03;;;3.60;;
39426;SDS011;25938;48.470;1.486;2023-06-19T12:58:12;6.38;;;3.38;;
39426;SDS011;25938;48.470;1.486;2023-06-19T13:00:38;5.10;;;3.83;;
39426;SDS011;25938;48.470;1.486;2023-06-19T13:03:04;6.43;;;4.32;;
39426;SDS011;25938;48.470;1.486;2023-06-19T13:05:30;4.15;;;3.75;;
39426;SDS011;25938;48.470;1.486;2023-06-19T13:07:56;9.68;;;5.03;;
39426;SDS011;25938;48.470;1.486;2023-06-19T13:10:22;6.53;;;3.92;;
39426;SDS011;25938;48.470;1.486;2023-06-19T13:12:48;5.78;;;4.05;;
39426;SDS011;25938;48.470;1.486;2023-06-19T13:15:14;4.97;;;3.63;;
39426;SDS011;25938;48.470;1.486;2023-06-19T13:17:40;6.15;;;4.28;;
39426;SDS011;25938;48.470;1.486;2023-06-19T13:20:06;5.00;;;4.30;;
39426;SDS011;25938;48.470;1.486;2023-06-19T13:22:32;4.35;;;3.95;;
39426;SDS011;25938;48.470;1.486;2023-06-19T13:24:58;6.22;;;4.07;;
39426;SDS011;25938;48.470;1.486;2023-06-19T13:27:24;5.30;;;4.22;;
39426;SDS011;25938;48.470;1.486;2023-06-19T13:29:50;6.10;;;4.68;;
39426;SDS011;25938;48.470;1.486;2023-06-19T13:32:16;5.80;;;4.60;;
39426;SDS011;25938;48.470;1.486;2023-06-19T13:34:42;4.88;;;4.38;;
39426;SDS011;25938;48.470;1.486;2023-06-19T13:37:08;4.65;;;3.92;;
39426;SDS011;25938;48.470;1.486;2023-06-19T13:39:34;5.28;;;4.32;;
39426;SDS011;25938;48.470;1.486;2023-06-19T13:42:00;5.22;;;4.05;;
39426;SDS011;25938;48.470;1.486;2023-06-19T13:44:26;6.45;;;4.22;;
39426;SDS011;25938;48.470;1.486;2023-06-19T13:46:53;6.05;;;3.80;;
39426;SDS011;25938;48.470;1.486;2023-06-19T13:49:19;4.65;;;4.10;;
39426;SDS011;25938;48.470;1.486;2023-06-19T13:51:45;7.38;;;4.38;;
39426;SDS011;25938;48.470;1.486;2023-06-19T13:54:11;4.97;;;4.22;;
39426;SDS011;25938;48.470;1.486;2023-06-19T13:56:38;6.22;;;5.00;;
39426;SDS011;25938;48.470;1.486;2023-06-19T13:59:04;6.22;;;5.60;;
39426;SDS011;25938;48.470;1.486;2023-06-19T14:01:30;6.13;;;4.78;;
39426;SDS011;25938;48.470;1.486;2023-06-19T14:03:57;4.88;;;4.30;;
39426;SDS011;25938;48.470;1.486;2023-06-19T14:06:23;5.03;;;4.47;;
39426;SDS011;25938;48.470;1.486;2023-06-19T14:08:49;7.75;;;4.22;;
39426;SDS011;25938;48.470;1.486;2023-06-19T14:11:15;5.18;;;4.60;;
39426;SDS011;25938;48.470;1.486;2023-06-19T14:13:41;6.28;;;4.63;;
39426;SDS011;25938;48.470;1.486;2023-06-19T14:16:07;5.15;;;4.65;;
39426;SDS011;25938;48.470;1.486;2023-06-19T14:18:33;5.68;;;3.92;;
39426;SDS011;25938;48.470;1.486;2023-06-19T14:21:01;9.23;;;4.55;;
39426;SDS011;25938;48.470;1.486;2023-06-19T14:23:27;5.55;;;4.95;;
39426;SDS011;25938;48.470;1.486;2023-06-19T14:25:53;7.07;;;5.05;;
39426;SDS011;25938;48.470;1.486;2023-06-19T14:28:20;5.85;;;4.28;;
39426;SDS011;25938;48.470;1.486;2023-06-19T14:30:46;6.22;;;4.28;;
39426;SDS011;25938;48.470;1.486;2023-06-19T14:33:12;8.93;;;4.22;;
39426;SDS011;25938;48.470;1.486;2023-06-19T14:35:44;6.78;;;4.15;;
39426;SDS011;25938;48.470;1.486;2023-06-19T14:38:12;7.03;;;3.70;;